Terminal Aerodrome Forecast
Issued by NWS Dodge City, KS

Home | Current Version | Previous Version | Graphics & Text | Print | Product List | Glossary Off
Versions: 1 2 3 4 5 6 7 8 9 10 11 12 13 14 15 16 17 18 19 20 21 22 23 24 25 26 27 28 29 30 31 32 33

273
FTUS43 KDDC 281120
TAFDDC
TAF
KDDC 281120Z 2812/2912 15014KT P6SM SCT090 WS020/20040KT
     FM281300 20016G24KT P6SM FEW250
     FM282100 18010KT P6SM FEW200
     FM290300 14011KT P6SM FEW250 WS020/18040KT=

USA.gov is the U.S. government's official web portal to all federal, state and local government web resources and services.